sensor_id;sensor_type;location;lat;lon;timestamp;pressure;altitude;pressure_sealevel;temperature;humidity
62458;BME280;48509;52.122;5.250;2023-03-03T00:00:55;102519.0;;;2.5;100.0
62458;BME280;48509;52.122;5.250;2023-03-03T00:02:31;102522.0;;;2.54;100.0
62458;BME280;48509;52.122;5.250;2023-03-03T00:05:44;102522.0;;;2.48;100.0
62458;BME280;48509;52.122;5.250;2023-03-03T00:07:19;102520.0;;;2.5;100.0
62458;BME280;48509;52.122;5.250;2023-03-03T00:08:56;102523.0;;;2.54;100.0
62458;BME280;48509;52.122;5.250;2023-03-03T00:12:19;102519.0;;;2.68;99.52
62458;BME280;48509;52.122;5.250;2023-03-03T00:13:57;102520.0;;;2.66;99.68
62458;BME280;48509;52.122;5.250;2023-03-03T00:15:35;102519.0;;;2.6;99.34
62458;BME280;48509;52.122;5.250;2023-03-03T00:17:14;102521.0;;;2.46;100.0
62458;BME280;48509;52.122;5.250;2023-03-03T00:20:35;102522.0;;;2.59;99.99
62458;BME280;48509;52.122;5.250;2023-03-03T00:22:15;102516.00000000001;;;2.48;100.0
62458;BME280;48509;52.122;5.250;2023-03-03T00:24:16;102511.99999999999;;;2.54;100.0
62458;BME280;48509;52.122;5.250;2023-03-03T00:25:54;102517.0;;;2.5;100.0
62458;BME280;48509;52.122;5.250;2023-03-03T00:27:34;102517.0;;;2.44;100.0
62458;BME280;48509;52.122;5.250;2023-03-03T00:31:14;102520.0;;;2.44;100.0
62458;BME280;48509;52.122;5.250;2023-03-03T00:32:52;102520.0;;;2.46;100.0
62458;BME280;48509;52.122;5.250;2023-03-03T00:34:28;102523.0;;;2.5;100.0
62458;BME280;48509;52.122;5.250;2023-03-03T00:36:21;102525.0;;;2.7;100.0
62458;BME280;48509;52.122;5.250;2023-03-03T00:38:13;102527.0;;;2.83;100.0
62458;BME280;48509;52.122;5.250;2023-03-03T00:41:29;102527.0;;;2.81;100.0
62458;BME280;48509;52.122;5.250;2023-03-03T00:43:14;102530.0;;;2.81;100.0
62458;BME280;48509;52.122;5.250;2023-03-03T00:44:55;102526.0;;;2.67;100.0
62458;BME280;48509;52.122;5.250;2023-03-03T00:46:35;102528.0;;;2.74;100.0
62458;BME280;48509;52.122;5.250;2023-03-03T00:50:19;102530.0;;;2.73;100.0
62458;BME280;48509;52.122;5.250;2023-03-03T00:52:00;102532.0;;;2.78;100.0
62458;BME280;48509;52.122;5.250;2023-03-03T00:53:36;102534.99999999999;;;2.82;100.0
62458;BME280;48509;52.122;5.250;2023-03-03T00:55:12;102539.00000000001;;;2.96;100.0
62458;BME280;48509;52.122;5.250;2023-03-03T00:56:48;102539.00000000001;;;3.08;100.0
62458;BME280;48509;52.122;5.250;2023-03-03T01:00:02;102541.00000000001;;;3.07;100.0
62458;BME280;48509;52.122;5.250;2023-03-03T01:01:40;102548.0;;;3.13;100.0
62458;BME280;48509;52.122;5.250;2023-03-03T01:03:18;102549.0;;;3.25;100.0
62458;BME280;48509;52.122;5.250;2023-03-03T01:06:31;102543.0;;;3.42;100.0
62458;BME280;48509;52.122;5.250;2023-03-03T01:08:08;102547.0;;;3.35;100.0
62458;BME280;48509;52.122;5.250;2023-03-03T01:09:44;102548.0;;;3.33;100.0
62458;BME280;48509;52.122;5.250;2023-03-03T01:13:01;102550.0;;;3.42;100.0
62458;BME280;48509;52.122;5.250;2023-03-03T01:14:38;102547.0;;;3.31;100.0
62458;BME280;48509;52.122;5.250;2023-03-03T01:16:15;102543.0;;;3.5;100.0
62458;BME280;48509;52.122;5.250;2023-03-03T01:17:53;102542.0;;;3.54;100.0
62458;BME280;48509;52.122;5.250;2023-03-03T01:21:05;102545.0;;;3.52;100.0
62458;BME280;48509;52.122;5.250;2023-03-03T01:22:42;102542.0;;;3.63;100.0
62458;BME280;48509;52.122;5.250;2023-03-03T01:24:18;102541.00000000001;;;3.59;100.0
62458;BME280;48509;52.122;5.250;2023-03-03T01:27:34;102538.00000000001;;;3.65;100.0
62458;BME280;48509;52.122;5.250;2023-03-03T01:29:10;102542.0;;;3.56;100.0
62458;BME280;48509;52.122;5.250;2023-03-03T01:30:46;102544.0;;;3.64;100.0
62458;BME280;48509;52.122;5.250;2023-03-03T01:32:22;102548.0;;;3.57;100.0
62458;BME280;48509;52.122;5.250;2023-03-03T01:35:34;102543.0;;;3.58;100.0
62458;BME280;48509;52.122;5.250;2023-03-03T01:37:11;102543.0;;;3.64;100.0
62458;BME280;48509;52.122;5.250;2023-03-03T01:38:47;102548.0;;;3.37;100.0
62458;BME280;48509;52.122;5.250;2023-03-03T01:42:05;102547.0;;;3.59;100.0
62458;BME280;48509;52.122;5.250;2023-03-03T01:43:43;102548.0;;;3.68;100.0
62458;BME280;48509;52.122;5.250;2023-03-03T01:45:22;102548.0;;;3.72;100.0
62458;BME280;48509;52.122;5.250;2023-03-03T01:47:03;102548.0;;;3.69;100.0
62458;BME280;48509;52.122;5.250;2023-03-03T01:50:29;102548.0;;;3.82;100.0
62458;BME280;48509;52.122;5.250;2023-03-03T01:52:12;102558.0;;;3.71;100.0
62458;BME280;48509;52.122;5.250;2023-03-03T01:53:52;102549.0;;;3.63;100.0
62458;BME280;48509;52.122;5.250;2023-03-03T01:55:34;102548.0;;;3.75;100.0
62458;BME280;48509;52.122;5.250;2023-03-03T01:58:58;102545.0;;;3.83;100.0
62458;BME280;48509;52.122;5.250;2023-03-03T02:00:38;102548.0;;;3.87;100.0
62458;BME280;48509;52.122;5.250;2023-03-03T02:02:15;102550.0;;;3.86;100.0
62458;BME280;48509;52.122;5.250;2023-03-03T02:03:52;102552.0;;;3.95;100.0
62458;BME280;48509;52.122;5.250;2023-03-03T02:07:07;102546.0;;;4.03;100.0
62458;BME280;48509;52.122;5.250;2023-03-03T02:08:49;102550.0;;;3.8;100.0
62458;BME280;48509;52.122;5.250;2023-03-03T02:10:29;102547.0;;;4.03;100.0
62458;BME280;48509;52.122;5.250;2023-03-03T02:12:08;102549.0;;;3.89;100.0
62458;BME280;48509;52.122;5.250;2023-03-03T02:15:24;102549.0;;;3.88;100.0
62458;BME280;48509;52.122;5.250;2023-03-03T02:17:02;102552.0;;;3.7;100.0
62458;BME280;48509;52.122;5.250;2023-03-03T02:18:38;102549.0;;;3.79;100.0
62458;BME280;48509;52.122;5.250;2023-03-03T02:22:01;102549.0;;;3.81;100.0
62458;BME280;48509;52.122;5.250;2023-03-03T02:23:42;102547.0;;;3.93;100.0
62458;BME280;48509;52.122;5.250;2023-03-03T02:25:30;102543.0;;;3.92;100.0
62458;BME280;48509;52.122;5.250;2023-03-03T02:27:09;102547.0;;;3.86;100.0
62458;BME280;48509;52.122;5.250;2023-03-03T02:30:22;102550.0;;;3.68;100.0
62458;BME280;48509;52.122;5.250;2023-03-03T02:32:00;102551.0;;;3.63;100.0
62458;BME280;48509;52.122;5.250;2023-03-03T02:33:37;102548.0;;;3.59;100.0
62458;BME280;48509;52.122;5.250;2023-03-03T02:35:33;102549.0;;;3.51;100.0
62458;BME280;48509;52.122;5.250;2023-03-03T02:38:50;102549.0;;;3.68;100.0
62458;BME280;48509;52.122;5.250;2023-03-03T02:40:33;102548.0;;;3.55;100.0
62458;BME280;48509;52.122;5.250;2023-03-03T02:42:15;102554.0;;;3.32;100.0
62458;BME280;48509;52.122;5.250;2023-03-03T02:43:58;102543.0;;;3.6;100.0
62458;BME280;48509;52.122;5.250;2023-03-03T02:45:41;102549.0;;;3.25;100.0
62458;BME280;48509;52.122;5.250;2023-03-03T02:48:54;102552.0;;;3.43;100.0
62458;BME280;48509;52.122;5.250;2023-03-03T02:50:30;102549.0;;;3.49;100.0
62458;BME280;48509;52.122;5.250;2023-03-03T02:52:07;102548.0;;;3.59;100.0
62458;BME280;48509;52.122;5.250;2023-03-03T02:55:22;102545.0;;;3.59;100.0
62458;BME280;48509;52.122;5.250;2023-03-03T02:56:59;102550.0;;;3.49;100.0
62458;BME280;48509;52.122;5.250;2023-03-03T02:58:36;102552.0;;;3.44;100.0
62458;BME280;48509;52.122;5.250;2023-03-03T03:00:13;102556.0;;;3.41;100.0
62458;BME280;48509;52.122;5.250;2023-03-03T03:03:27;102556.0;;;3.27;100.0
62458;BME280;48509;52.122;5.250;2023-03-03T03:05:03;102550.0;;;3.32;100.0
62458;BME280;48509;52.122;5.250;2023-03-03T03:06:41;102555.0;;;3.29;100.0
62458;BME280;48509;52.122;5.250;2023-03-03T03:09:53;102554.0;;;3.36;100.0
62458;BME280;48509;52.122;5.250;2023-03-03T03:11:30;102557.0;;;3.16;100.0
62458;BME280;48509;52.122;5.250;2023-03-03T03:13:06;102554.0;;;3.25;100.0
62458;BME280;48509;52.122;5.250;2023-03-03T03:16:18;102552.0;;;3.06;100.0
62458;BME280;48509;52.122;5.250;2023-03-03T03:17:54;102553.0;;;3.28;100.0
62458;BME280;48509;52.122;5.250;2023-03-03T03:19:30;102558.0;;;3.26;100.0
62458;BME280;48509;52.122;5.250;2023-03-03T03:21:08;102558.0;;;3.42;100.0
62458;BME280;48509;52.122;5.250;2023-03-03T03:24:21;102557.0;;;3.32;100.0
62458;BME280;48509;52.122;5.250;2023-03-03T03:25:58;102557.0;;;3.41;100.0
62458;BME280;48509;52.122;5.250;2023-03-03T03:27:34;102553.0;;;3.25;100.0
62458;BME280;48509;52.122;5.250;2023-03-03T03:30:46;102551.0;;;3.37;100.0
62458;BME280;48509;52.122;5.250;2023-03-03T03:32:22;102555.0;;;3.51;100.0
62458;BME280;48509;52.122;5.250;2023-03-03T03:33:57;102549.0;;;3.46;100.0
62458;BME280;48509;52.122;5.250;2023-03-03T03:37:11;102553.0;;;3.45;100.0
62458;BME280;48509;52.122;5.250;2023-03-03T03:38:47;102553.0;;;3.47;100.0
62458;BME280;48509;52.122;5.250;2023-03-03T03:40:23;102549.0;;;3.57;100.0
62458;BME280;48509;52.122;5.250;2023-03-03T03:43:35;102557.0;;;3.51;100.0
62458;BME280;48509;52.122;5.250;2023-03-03T03:45:12;102556.0;;;3.42;100.0
62458;BME280;48509;52.122;5.250;2023-03-03T03:46:48;102554.0;;;3.54;100.0
62458;BME280;48509;52.122;5.250;2023-03-03T03:48:25;102557.0;;;3.54;100.0
62458;BME280;48509;52.122;5.250;2023-03-03T03:51:38;102561.99999999999;;;3.45;100.0
62458;BME280;48509;52.122;5.250;2023-03-03T03:53:14;102563.00000000001;;;3.58;100.0
62458;BME280;48509;52.122;5.250;2023-03-03T03:54:51;102563.00000000001;;;3.78;100.0
62458;BME280;48509;52.122;5.250;2023-03-03T03:58:03;102565.00000000001;;;3.65;100.0
62458;BME280;48509;52.122;5.250;2023-03-03T03:59:40;102564.00000000001;;;3.54;100.0
62458;BME280;48509;52.122;5.250;2023-03-03T04:01:16;102567.0;;;3.5;100.0
62458;BME280;48509;52.122;5.250;2023-03-03T04:04:29;102577.0;;;3.49;100.0
62458;BME280;48509;52.122;5.250;2023-03-03T04:06:05;102574.0;;;3.4;100.0
62458;BME280;48509;52.122;5.250;2023-03-03T04:07:41;102575.0;;;3.52;100.0
62458;BME280;48509;52.122;5.250;2023-03-03T04:09:17;102571.0;;;3.52;100.0
62458;BME280;48509;52.122;5.250;2023-03-03T04:12:30;102576.0;;;3.48;100.0
62458;BME280;48509;52.122;5.250;2023-03-03T04:14:07;102573.0;;;3.55;100.0
62458;BME280;48509;52.122;5.250;2023-03-03T04:15:43;102566.00000000001;;;3.73;100.0
62458;BME280;48509;52.122;5.250;2023-03-03T04:18:57;102564.00000000001;;;3.67;100.0
62458;BME280;48509;52.122;5.250;2023-03-03T04:20:33;102567.0;;;3.79;100.0
62458;BME280;48509;52.122;5.250;2023-03-03T04:22:10;102567.0;;;3.82;100.0
62458;BME280;48509;52.122;5.250;2023-03-03T04:25:22;102570.0;;;3.79;100.0
62458;BME280;48509;52.122;5.250;2023-03-03T04:26:59;102567.0;;;3.91;100.0
62458;BME280;48509;52.122;5.250;2023-03-03T04:28:35;102569.0;;;3.87;100.0
62458;BME280;48509;52.122;5.250;2023-03-03T04:30:14;102564.00000000001;;;3.75;100.0
62458;BME280;48509;52.122;5.250;2023-03-03T04:33:26;102568.0;;;3.81;100.0
62458;BME280;48509;52.122;5.250;2023-03-03T04:35:03;102569.0;;;3.73;100.0
62458;BME280;48509;52.122;5.250;2023-03-03T04:36:41;102574.0;;;3.9;100.0
62458;BME280;48509;52.122;5.250;2023-03-03T04:39:53;102575.0;;;3.79;100.0
62458;BME280;48509;52.122;5.250;2023-03-03T04:41:29;102573.0;;;3.88;100.0
62458;BME280;48509;52.122;5.250;2023-03-03T04:43:05;102575.0;;;4.0;100.0
62458;BME280;48509;52.122;5.250;2023-03-03T04:46:17;102571.0;;;3.93;100.0
62458;BME280;48509;52.122;5.250;2023-03-03T04:47:54;102571.0;;;3.99;100.0
62458;BME280;48509;52.122;5.250;2023-03-03T04:49:31;102576.0;;;4.03;100.0
62458;BME280;48509;52.122;5.250;2023-03-03T04:51:07;102576.0;;;3.77;100.0
62458;BME280;48509;52.122;5.250;2023-03-03T04:54:19;102583.99999999999;;;3.94;100.0
62458;BME280;48509;52.122;5.250;2023-03-03T04:55:55;102580.0;;;3.91;100.0
62458;BME280;48509;52.122;5.250;2023-03-03T04:57:31;102576.0;;;3.99;100.0
62458;BME280;48509;52.122;5.250;2023-03-03T05:00:43;102579.0;;;4.04;100.0
62458;BME280;48509;52.122;5.250;2023-03-03T05:02:19;102576.0;;;4.0;100.0
62458;BME280;48509;52.122;5.250;2023-03-03T05:03:55;102578.0;;;4.01;100.0
62458;BME280;48509;52.122;5.250;2023-03-03T05:07:07;102576.0;;;4.12;100.0
62458;BME280;48509;52.122;5.250;2023-03-03T05:08:43;102576.0;;;3.92;100.0
62458;BME280;48509;52.122;5.250;2023-03-03T05:10:19;102570.0;;;3.75;100.0
62458;BME280;48509;52.122;5.250;2023-03-03T05:13:32;102568.0;;;3.91;100.0
62458;BME280;48509;52.122;5.250;2023-03-03T05:15:09;102571.0;;;4.0;100.0
62458;BME280;48509;52.122;5.250;2023-03-03T05:16:47;102567.0;;;3.99;100.0
62458;BME280;48509;52.122;5.250;2023-03-03T05:18:24;102561.99999999999;;;4.18;100.0
62458;BME280;48509;52.122;5.250;2023-03-03T05:21:38;102567.0;;;4.24;100.0
62458;BME280;48509;52.122;5.250;2023-03-03T05:23:15;102569.0;;;4.33;100.0
62458;BME280;48509;52.122;5.250;2023-03-03T05:24:52;102570.0;;;4.41;100.0
62458;BME280;48509;52.122;5.250;2023-03-03T05:28:04;102567.0;;;4.37;100.0
62458;BME280;48509;52.122;5.250;2023-03-03T05:29:40;102567.0;;;4.16;100.0
62458;BME280;48509;52.122;5.250;2023-03-03T05:31:16;102558.0;;;4.2;100.0
62458;BME280;48509;52.122;5.250;2023-03-03T05:34:28;102558.99999999999;;;4.28;100.0
62458;BME280;48509;52.122;5.250;2023-03-03T05:36:05;102561.99999999999;;;4.29;100.0
62458;BME280;48509;52.122;5.250;2023-03-03T05:37:42;102559.99999999999;;;4.32;100.0
62458;BME280;48509;52.122;5.250;2023-03-03T05:39:18;102559.99999999999;;;4.24;100.0
62458;BME280;48509;52.122;5.250;2023-03-03T05:42:30;102567.0;;;4.32;100.0
62458;BME280;48509;52.122;5.250;2023-03-03T05:44:07;102571.0;;;4.16;100.0
62458;BME280;48509;52.122;5.250;2023-03-03T05:45:43;102574.0;;;4.1;100.0
62458;BME280;48509;52.122;5.250;2023-03-03T05:48:55;102568.0;;;4.2;100.0
62458;BME280;48509;52.122;5.250;2023-03-03T05:50:32;102575.0;;;4.16;100.0
62458;BME280;48509;52.122;5.250;2023-03-03T05:52:08;102574.0;;;4.17;100.0
62458;BME280;48509;52.122;5.250;2023-03-03T05:55:20;102571.0;;;4.21;100.0
62458;BME280;48509;52.122;5.250;2023-03-03T05:56:56;102569.0;;;4.32;100.0
62458;BME280;48509;52.122;5.250;2023-03-03T05:58:32;102570.0;;;4.3;100.0
62458;BME280;48509;52.122;5.250;2023-03-03T06:00:10;102571.0;;;4.33;100.0
62458;BME280;48509;52.122;5.250;2023-03-03T06:03:23;102573.0;;;4.26;100.0
62458;BME280;48509;52.122;5.250;2023-03-03T06:04:59;102575.0;;;4.26;100.0
62458;BME280;48509;52.122;5.250;2023-03-03T06:06:35;102571.0;;;4.28;100.0
62458;BME280;48509;52.122;5.250;2023-03-03T06:09:47;102576.0;;;4.34;100.0
62458;BME280;48509;52.122;5.250;2023-03-03T06:11:23;102581.0;;;4.05;100.0
62458;BME280;48509;52.122;5.250;2023-03-03T06:12:59;102583.99999999999;;;3.96;100.0
62458;BME280;48509;52.122;5.250;2023-03-03T06:16:12;102582.0;;;4.0;100.0
62458;BME280;48509;52.122;5.250;2023-03-03T06:17:48;102588.00000000001;;;4.14;100.0
62458;BME280;48509;52.122;5.250;2023-03-03T06:19:24;102590.00000000001;;;4.28;100.0
62458;BME280;48509;52.122;5.250;2023-03-03T06:21:01;102589.00000000001;;;4.26;100.0
62458;BME280;48509;52.122;5.250;2023-03-03T06:24:14;102596.0;;;4.29;100.0
62458;BME280;48509;52.122;5.250;2023-03-03T06:25:49;102594.0;;;4.24;100.0
62458;BME280;48509;52.122;5.250;2023-03-03T06:27:25;102593.0;;;4.26;100.0
62458;BME280;48509;52.122;5.250;2023-03-03T06:30:38;102599.0;;;4.32;100.0
62458;BME280;48509;52.122;5.250;2023-03-03T06:32:15;102597.0;;;4.22;100.0
62458;BME280;48509;52.122;5.250;2023-03-03T06:33:51;102597.0;;;4.3;100.0
62458;BME280;48509;52.122;5.250;2023-03-03T06:37:04;102596.0;;;4.36;100.0
62458;BME280;48509;52.122;5.250;2023-03-03T06:38:41;102592.0;;;4.34;100.0
62458;BME280;48509;52.122;5.250;2023-03-03T06:40:18;102595.0;;;4.38;100.0
62458;BME280;48509;52.122;5.250;2023-03-03T06:43:30;102598.0;;;4.38;100.0
62458;BME280;48509;52.122;5.250;2023-03-03T06:45:07;102597.0;;;4.46;100.0
62458;BME280;48509;52.122;5.250;2023-03-03T06:46:43;102602.0;;;4.32;100.0
62458;BME280;48509;52.122;5.250;2023-03-03T06:48:19;102603.0;;;4.49;100.0
62458;BME280;48509;52.122;5.250;2023-03-03T06:51:34;102607.0;;;4.45;100.0
62458;BME280;48509;52.122;5.250;2023-03-03T06:53:12;102609.99999999999;;;4.32;100.0
62458;BME280;48509;52.122;5.250;2023-03-03T06:54:52;102616.00000000001;;;4.51;100.0
62458;BME280;48509;52.122;5.250;2023-03-03T06:58:13;102618.0;;;4.24;100.0
62458;BME280;48509;52.122;5.250;2023-03-03T06:59:52;102618.0;;;4.28;100.0
62458;BME280;48509;52.122;5.250;2023-03-03T07:01:34;102617.0;;;4.49;100.0
62458;BME280;48509;52.122;5.250;2023-03-03T07:03:14;102622.0;;;4.38;100.0
62458;BME280;48509;52.122;5.250;2023-03-03T07:06:31;102622.0;;;4.58;100.0
62458;BME280;48509;52.122;5.250;2023-03-03T07:08:12;102628.0;;;4.74;100.0
62458;BME280;48509;52.122;5.250;2023-03-03T07:09:51;102630.0;;;4.49;100.0
62458;BME280;48509;52.122;5.250;2023-03-03T07:11:29;102631.0;;;4.71;100.0
62458;BME280;48509;52.122;5.250;2023-03-03T07:15:01;102636.99999999999;;;4.78;100.0
62458;BME280;48509;52.122;5.250;2023-03-03T07:16:50;102636.99999999999;;;4.71;100.0
62458;BME280;48509;52.122;5.250;2023-03-03T07:18:34;102634.99999999999;;;4.68;100.0
62458;BME280;48509;52.122;5.250;2023-03-03T07:20:17;102641.00000000001;;;4.83;100.0
62458;BME280;48509;52.122;5.250;2023-03-03T07:21:55;102642.0;;;4.92;100.0
62458;BME280;48509;52.122;5.250;2023-03-03T07:25:20;102640.00000000001;;;4.7;100.0
62458;BME280;48509;52.122;5.250;2023-03-03T07:27:10;102646.0;;;4.8;100.0
62458;BME280;48509;52.122;5.250;2023-03-03T07:28:52;102643.0;;;4.92;100.0
62458;BME280;48509;52.122;5.250;2023-03-03T07:30:29;102642.0;;;4.91;100.0
62458;BME280;48509;52.122;5.250;2023-03-03T07:33:58;102650.0;;;4.97;100.0
62458;BME280;48509;52.122;5.250;2023-03-03T07:35:37;102644.0;;;5.07;100.0
62458;BME280;48509;52.122;5.250;2023-03-03T07:37:16;102648.0;;;5.04;100.0
62458;BME280;48509;52.122;5.250;2023-03-03T07:39:20;102651.0;;;4.95;100.0
62458;BME280;48509;52.122;5.250;2023-03-03T07:41:04;102651.0;;;5.0;100.0
62458;BME280;48509;52.122;5.250;2023-03-03T07:42:46;102649.0;;;5.09;100.0
62458;BME280;48509;52.122;5.250;2023-03-03T07:46:22;102656.0;;;5.07;100.0
62458;BME280;48509;52.122;5.250;2023-03-03T07:48:05;102655.0;;;5.05;100.0
62458;BME280;48509;52.122;5.250;2023-03-03T07:49:55;102663.00000000001;;;5.16;100.0
62458;BME280;48509;52.122;5.250;2023-03-03T07:51:37;102668.0;;;5.13;100.0
62458;BME280;48509;52.122;5.250;2023-03-03T07:53:22;102669.0;;;5.24;100.0
62458;BME280;48509;52.122;5.250;2023-03-03T07:55:30;102672.0;;;5.07;100.0
62458;BME280;48509;52.122;5.250;2023-03-03T07:58:57;102671.0;;;5.16;100.0
62458;BME280;48509;52.122;5.250;2023-03-03T08:01:37;102675.0;;;5.17;100.0
62458;BME280;48509;52.122;5.250;2023-03-03T08:03:16;102674.0;;;5.22;100.0
62458;BME280;48509;52.122;5.250;2023-03-03T08:04:53;102679.0;;;5.12;100.0
62458;BME280;48509;52.122;5.250;2023-03-03T08:06:41;102679.0;;;5.0;100.0
62458;BME280;48509;52.122;5.250;2023-03-03T08:08:27;102678.0;;;5.14;100.0
62458;BME280;48509;52.122;5.250;2023-03-03T08:10:28;102678.0;;;5.12;100.0
62458;BME280;48509;52.122;5.250;2023-03-03T08:12:22;102683.0;;;5.2;100.0
62458;BME280;48509;52.122;5.250;2023-03-03T08:14:15;102688.00000000001;;;5.41;100.0
62458;BME280;48509;52.122;5.250;2023-03-03T08:17:38;102683.0;;;5.3;100.0
62458;BME280;48509;52.122;5.250;2023-03-03T08:19:16;102688.00000000001;;;5.37;100.0
62458;BME280;48509;52.122;5.250;2023-03-03T08:20:55;102694.0;;;5.38;100.0
62458;BME280;48509;52.122;5.250;2023-03-03T08:22:34;102692.0;;;5.36;100.0
62458;BME280;48509;52.122;5.250;2023-03-03T08:25:47;102696.0;;;5.27;100.0
62458;BME280;48509;52.122;5.250;2023-03-03T08:27:24;102700.0;;;5.29;100.0
62458;BME280;48509;52.122;5.250;2023-03-03T08:29:00;102699.0;;;5.49;100.0
62458;BME280;48509;52.122;5.250;2023-03-03T08:32:13;102701.0;;;5.51;100.0
62458;BME280;48509;52.122;5.250;2023-03-03T08:33:50;102705.0;;;5.36;100.0
62458;BME280;48509;52.122;5.250;2023-03-03T08:35:27;102706.0;;;5.58;100.0
62458;BME280;48509;52.122;5.250;2023-03-03T08:37:03;102708.0;;;5.64;100.0
62458;BME280;48509;52.122;5.250;2023-03-03T08:40:16;102702.0;;;5.68;100.0
62458;BME280;48509;52.122;5.250;2023-03-03T08:41:52;102708.0;;;5.7;100.0
62458;BME280;48509;52.122;5.250;2023-03-03T08:43:29;102706.0;;;5.7;100.0
62458;BME280;48509;52.122;5.250;2023-03-03T08:46:42;102713.00000000001;;;5.84;100.0
62458;BME280;48509;52.122;5.250;2023-03-03T08:48:18;102702.0;;;5.83;100.0
62458;BME280;48509;52.122;5.250;2023-03-03T08:49:56;102702.0;;;5.79;100.0
62458;BME280;48509;52.122;5.250;2023-03-03T08:53:09;102706.0;;;5.8;100.0
62458;BME280;48509;52.122;5.250;2023-03-03T08:54:45;102706.0;;;5.91;100.0
62458;BME280;48509;52.122;5.250;2023-03-03T08:56:22;102707.0;;;5.99;100.0
62458;BME280;48509;52.122;5.250;2023-03-03T08:57:58;102708.99999999999;;;5.94;100.0
62458;BME280;48509;52.122;5.250;2023-03-03T09:01:10;102708.0;;;6.06;100.0
62458;BME280;48509;52.122;5.250;2023-03-03T09:02:46;102706.0;;;5.97;100.0
62458;BME280;48509;52.122;5.250;2023-03-03T09:04:23;102714.00000000001;;;6.15;100.0
62458;BME280;48509;52.122;5.250;2023-03-03T09:07:35;102717.0;;;6.16;100.0
62458;BME280;48509;52.122;5.250;2023-03-03T09:09:13;102717.0;;;6.23;100.0
62458;BME280;48509;52.122;5.250;2023-03-03T09:10:49;102713.00000000001;;;6.37;99.84
62458;BME280;48509;52.122;5.250;2023-03-03T09:14:10;102708.0;;;6.48;99.69
62458;BME280;48509;52.122;5.250;2023-03-03T09:15:47;102708.99999999999;;;6.3;99.08
62458;BME280;48509;52.122;5.250;2023-03-03T09:17:26;102711.99999999999;;;6.25;99.29
62458;BME280;48509;52.122;5.250;2023-03-03T09:19:21;102708.99999999999;;;6.37;99.37
62458;BME280;48509;52.122;5.250;2023-03-03T09:21:00;102702.0;;;6.38;99.12
62458;BME280;48509;52.122;5.250;2023-03-03T09:24:19;102707.0;;;6.26;99.22
62458;BME280;48509;52.122;5.250;2023-03-03T09:26:18;102713.00000000001;;;6.32;100.0
62458;BME280;48509;52.122;5.250;2023-03-03T09:28:18;102708.0;;;6.23;99.56
62458;BME280;48509;52.122;5.250;2023-03-03T09:30:00;102703.0;;;6.45;98.53
62458;BME280;48509;52.122;5.250;2023-03-03T09:31:39;102702.0;;;6.54;98.8
62458;BME280;48509;52.122;5.250;2023-03-03T09:35:24;102699.0;;;6.8;100.0
62458;BME280;48509;52.122;5.250;2023-03-03T09:37:19;102701.0;;;7.0;99.93
62458;BME280;48509;52.122;5.250;2023-03-03T09:38:57;102705.0;;;7.12;97.83
62458;BME280;48509;52.122;5.250;2023-03-03T09:40:46;102706.0;;;7.19;94.64
62458;BME280;48509;52.122;5.250;2023-03-03T09:43:01;102707.0;;;7.12;92.92
62458;BME280;48509;52.122;5.250;2023-03-03T09:46:06;102708.0;;;7.13;94.37
62458;BME280;48509;52.122;5.250;2023-03-03T09:47:54;102708.0;;;7.22;93.26
62458;BME280;48509;52.122;5.250;2023-03-03T09:49:44;102714.00000000001;;;7.37;93.05
62458;BME280;48509;52.122;5.250;2023-03-03T09:52:10;102708.99999999999;;;7.26;92.78
62458;BME280;48509;52.122;5.250;2023-03-03T09:54:00;102713.00000000001;;;7.06;91.52
62458;BME280;48509;52.122;5.250;2023-03-03T09:55:58;102720.0;;;7.15;93.39
62458;BME280;48509;52.122;5.250;2023-03-03T09:57:52;102717.0;;;7.3;92.75
62458;BME280;48509;52.122;5.250;2023-03-03T09:59:41;102716.00000000001;;;7.08;91.29
62458;BME280;48509;52.122;5.250;2023-03-03T10:01:36;102716.00000000001;;;7.17;92.63
62458;BME280;48509;52.122;5.250;2023-03-03T10:06:51;102716.00000000001;;;7.17;92.66
62458;BME280;48509;52.122;5.250;2023-03-03T10:08:44;102718.0;;;7.08;92.2
62458;BME280;48509;52.122;5.250;2023-03-03T10:10:44;102717.0;;;7.19;93.04
62458;BME280;48509;52.122;5.250;2023-03-03T10:13:01;102717.0;;;7.27;92.78
62458;BME280;48509;52.122;5.250;2023-03-03T10:15:02;102718.0;;;7.35;92.38
62458;BME280;48509;52.122;5.250;2023-03-03T10:17:20;102714.00000000001;;;7.23;91.38
62458;BME280;48509;52.122;5.250;2023-03-03T10:19:02;102717.0;;;7.29;92.55
62458;BME280;48509;52.122;5.250;2023-03-03T10:20:52;102714.00000000001;;;7.36;91.98
62458;BME280;48509;52.122;5.250;2023-03-03T10:22:44;102717.0;;;7.51;91.83
62458;BME280;48509;52.122;5.250;2023-03-03T10:24:26;102716.00000000001;;;7.51;90.88
62458;BME280;48509;52.122;5.250;2023-03-03T10:26:10;102714.00000000001;;;7.53;90.44
62458;BME280;48509;52.122;5.250;2023-03-03T10:28:09;102713.00000000001;;;7.69;90.45
62458;BME280;48509;52.122;5.250;2023-03-03T10:31:51;102715.00000000001;;;7.56;89.83
62458;BME280;48509;52.122;5.250;2023-03-03T10:33:41;102716.00000000001;;;7.75;90.01
62458;BME280;48509;52.122;5.250;2023-03-03T10:35:32;102715.00000000001;;;7.81;90.69
62458;BME280;48509;52.122;5.250;2023-03-03T10:37:18;102717.0;;;7.79;88.42
62458;BME280;48509;52.122;5.250;2023-03-03T10:39:12;102711.99999999999;;;7.94;88.11
62458;BME280;48509;52.122;5.250;2023-03-03T10:41:06;102716.00000000001;;;8.09;88.13
62458;BME280;48509;52.122;5.250;2023-03-03T10:42:54;102713.00000000001;;;7.9;87.58
62458;BME280;48509;52.122;5.250;2023-03-03T10:44:54;102718.0;;;8.02;87.09
62458;BME280;48509;52.122;5.250;2023-03-03T10:48:44;102717.0;;;8.14;87.68
62458;BME280;48509;52.122;5.250;2023-03-03T10:50:33;102719.0;;;8.14;86.28
62458;BME280;48509;52.122;5.250;2023-03-03T10:52:27;102719.0;;;8.33;86.39
62458;BME280;48509;52.122;5.250;2023-03-03T10:54:18;102721.0;;;8.06;86.33
62458;BME280;48509;52.122;5.250;2023-03-03T10:56:28;102725.0;;;7.97;86.96
62458;BME280;48509;52.122;5.250;2023-03-03T10:58:21;102719.0;;;8.07;86.03
62458;BME280;48509;52.122;5.250;2023-03-03T11:00:20;102720.0;;;8.03;85.41